sensor_id;sensor_type;location;lat;lon;timestamp;temperature;humidity
46037;DHT22;31769;49.304;8.428;2023-11-19T00:01:39;8.90;99.90
46037;DHT22;31769;49.304;8.428;2023-11-19T00:04:40;8.90;99.90
46037;DHT22;31769;49.304;8.428;2023-11-19T00:07:41;8.80;99.90
46037;DHT22;31769;49.304;8.428;2023-11-19T00:10:42;8.80;99.90
46037;DHT22;31769;49.304;8.428;2023-11-19T00:13:43;8.70;99.90
46037;DHT22;31769;49.304;8.428;2023-11-19T00:16:44;8.70;99.90
46037;DHT22;31769;49.304;8.428;2023-11-19T00:19:44;8.70;99.90
46037;DHT22;31769;49.304;8.428;2023-11-19T00:22:45;8.70;99.90
46037;DHT22;31769;49.304;8.428;2023-11-19T00:25:51;8.70;99.90
46037;DHT22;31769;49.304;8.428;2023-11-19T00:28:52;8.70;99.90
46037;DHT22;31769;49.304;8.428;2023-11-19T00:31:53;8.70;99.90
46037;DHT22;31769;49.304;8.428;2023-11-19T00:34:53;8.80;99.90
46037;DHT22;31769;49.304;8.428;2023-11-19T00:37:54;8.70;99.90
46037;DHT22;31769;49.304;8.428;2023-11-19T00:40:55;8.80;99.90
46037;DHT22;31769;49.304;8.428;2023-11-19T00:43:56;8.80;99.90
46037;DHT22;31769;49.304;8.428;2023-11-19T00:46:57;8.80;99.90
46037;DHT22;31769;49.304;8.428;2023-11-19T00:49:57;8.80;99.90
46037;DHT22;31769;49.304;8.428;2023-11-19T00:52:59;8.80;99.90
46037;DHT22;31769;49.304;8.428;2023-11-19T00:56:00;8.80;99.90
46037;DHT22;31769;49.304;8.428;2023-11-19T00:59:01;8.90;99.90
46037;DHT22;31769;49.304;8.428;2023-11-19T01:02:01;8.80;99.90
46037;DHT22;31769;49.304;8.428;2023-11-19T01:05:04;8.90;99.90
46037;DHT22;31769;49.304;8.428;2023-11-19T01:08:05;8.90;99.90
46037;DHT22;31769;49.304;8.428;2023-11-19T01:11:07;8.90;99.90
46037;DHT22;31769;49.304;8.428;2023-11-19T01:14:12;8.90;99.90
46037;DHT22;31769;49.304;8.428;2023-11-19T01:17:13;8.90;99.90
46037;DHT22;31769;49.304;8.428;2023-11-19T01:20:13;8.90;99.90
46037;DHT22;31769;49.304;8.428;2023-11-19T01:23:14;9.00;99.90
46037;DHT22;31769;49.304;8.428;2023-11-19T01:26:15;8.90;99.90
46037;DHT22;31769;49.304;8.428;2023-11-19T01:29:15;9.00;99.90
46037;DHT22;31769;49.304;8.428;2023-11-19T01:32:16;9.00;99.90
46037;DHT22;31769;49.304;8.428;2023-11-19T01:35:17;9.00;99.90
46037;DHT22;31769;49.304;8.428;2023-11-19T01:38:17;9.10;99.90
46037;DHT22;31769;49.304;8.428;2023-11-19T01:41:18;9.10;99.90
46037;DHT22;31769;49.304;8.428;2023-11-19T01:44:19;9.00;99.90
46037;DHT22;31769;49.304;8.428;2023-11-19T01:47:20;9.10;99.90
46037;DHT22;31769;49.304;8.428;2023-11-19T01:50:21;9.10;99.90
46037;DHT22;31769;49.304;8.428;2023-11-19T01:53:24;9.10;99.90
46037;DHT22;31769;49.304;8.428;2023-11-19T01:56:26;9.20;99.90
46037;DHT22;31769;49.304;8.428;2023-11-19T01:59:28;9.20;99.90
46037;DHT22;31769;49.304;8.428;2023-11-19T02:02:28;9.20;99.90
46037;DHT22;31769;49.304;8.428;2023-11-19T02:05:30;9.20;99.90
46037;DHT22;31769;49.304;8.428;2023-11-19T02:08:32;9.20;99.90
46037;DHT22;31769;49.304;8.428;2023-11-19T02:11:39;9.30;99.90
46037;DHT22;31769;49.304;8.428;2023-11-19T02:14:40;9.30;99.90
46037;DHT22;31769;49.304;8.428;2023-11-19T02:17:42;9.30;99.90
46037;DHT22;31769;49.304;8.428;2023-11-19T02:20:43;9.30;99.90
46037;DHT22;31769;49.304;8.428;2023-11-19T02:23:45;9.40;99.90
46037;DHT22;31769;49.304;8.428;2023-11-19T02:27:10;9.40;99.90
46037;DHT22;31769;49.304;8.428;2023-11-19T02:30:14;9.50;99.90
46037;DHT22;31769;49.304;8.428;2023-11-19T02:33:15;9.50;99.90
46037;DHT22;31769;49.304;8.428;2023-11-19T02:36:15;9.50;99.90
46037;DHT22;31769;49.304;8.428;2023-11-19T02:39:17;9.50;99.90
46037;DHT22;31769;49.304;8.428;2023-11-19T02:42:22;9.50;99.90
46037;DHT22;31769;49.304;8.428;2023-11-19T02:45:23;9.50;99.90
46037;DHT22;31769;49.304;8.428;2023-11-19T02:48:24;9.60;99.90
46037;DHT22;31769;49.304;8.428;2023-11-19T02:51:25;9.60;99.90
46037;DHT22;31769;49.304;8.428;2023-11-19T02:54:25;9.60;99.90
46037;DHT22;31769;49.304;8.428;2023-11-19T02:57:31;9.70;99.90
46037;DHT22;31769;49.304;8.428;2023-11-19T03:00:32;9.70;99.90
46037;DHT22;31769;49.304;8.428;2023-11-19T03:03:37;9.80;99.90
46037;DHT22;31769;49.304;8.428;2023-11-19T03:06:41;9.80;99.90
46037;DHT22;31769;49.304;8.428;2023-11-19T03:09:43;9.80;99.90
46037;DHT22;31769;49.304;8.428;2023-11-19T03:12:44;10.10;99.90
46037;DHT22;31769;49.304;8.428;2023-11-19T03:15:45;9.80;99.90
46037;DHT22;31769;49.304;8.428;2023-11-19T03:18:46;9.80;99.90
46037;DHT22;31769;49.304;8.428;2023-11-19T03:21:47;9.80;99.90
46037;DHT22;31769;49.304;8.428;2023-11-19T03:24:51;9.90;99.90
46037;DHT22;31769;49.304;8.428;2023-11-19T03:27:51;10.10;99.90
46037;DHT22;31769;49.304;8.428;2023-11-19T03:30:52;10.00;99.90
46037;DHT22;31769;49.304;8.428;2023-11-19T03:33:53;9.90;99.90
46037;DHT22;31769;49.304;8.428;2023-11-19T03:36:54;10.00;99.90
46037;DHT22;31769;49.304;8.428;2023-11-19T03:39:59;10.00;99.90
46037;DHT22;31769;49.304;8.428;2023-11-19T03:43:00;10.00;99.90
46037;DHT22;31769;49.304;8.428;2023-11-19T03:46:01;10.10;99.90
46037;DHT22;31769;49.304;8.428;2023-11-19T03:49:01;10.00;99.90
46037;DHT22;31769;49.304;8.428;2023-11-19T03:52:02;10.40;99.90
46037;DHT22;31769;49.304;8.428;2023-11-19T03:55:04;10.10;99.90
46037;DHT22;31769;49.304;8.428;2023-11-19T03:58:09;10.10;99.90
46037;DHT22;31769;49.304;8.428;2023-11-19T04:01:13;10.20;99.90
46037;DHT22;31769;49.304;8.428;2023-11-19T04:04:14;10.20;99.90
46037;DHT22;31769;49.304;8.428;2023-11-19T04:07:14;10.50;99.90
46037;DHT22;31769;49.304;8.428;2023-11-19T04:10:15;10.30;99.90
46037;DHT22;31769;49.304;8.428;2023-11-19T04:13:19;10.60;99.90
46037;DHT22;31769;49.304;8.428;2023-11-19T04:16:26;10.40;99.90
46037;DHT22;31769;49.304;8.428;2023-11-19T04:19:28;10.40;99.90
46037;DHT22;31769;49.304;8.428;2023-11-19T04:22:29;10.40;99.90
46037;DHT22;31769;49.304;8.428;2023-11-19T04:25:29;10.40;99.90
46037;DHT22;31769;49.304;8.428;2023-11-19T04:28:31;10.50;99.90
46037;DHT22;31769;49.304;8.428;2023-11-19T04:31:31;10.50;99.90
46037;DHT22;31769;49.304;8.428;2023-11-19T04:34:32;10.60;99.90
46037;DHT22;31769;49.304;8.428;2023-11-19T04:37:33;10.60;99.90
46037;DHT22;31769;49.304;8.428;2023-11-19T04:40:33;10.60;99.90
46037;DHT22;31769;49.304;8.428;2023-11-19T04:43:34;11.50;99.90
46037;DHT22;31769;49.304;8.428;2023-11-19T04:46:35;10.80;99.90
46037;DHT22;31769;49.304;8.428;2023-11-19T04:49:36;10.60;99.90
46037;DHT22;31769;49.304;8.428;2023-11-19T04:52:40;10.80;99.90
46037;DHT22;31769;49.304;8.428;2023-11-19T04:55:41;10.70;99.90
46037;DHT22;31769;49.304;8.428;2023-11-19T04:58:41;10.70;99.90
46037;DHT22;31769;49.304;8.428;2023-11-19T05:01:46;10.70;99.90
46037;DHT22;31769;49.304;8.428;2023-11-19T05:04:47;10.80;99.90
46037;DHT22;31769;49.304;8.428;2023-11-19T05:07:49;10.90;99.90
46037;DHT22;31769;49.304;8.428;2023-11-19T05:10:50;10.90;99.90
46037;DHT22;31769;49.304;8.428;2023-11-19T05:13:51;11.30;99.90
46037;DHT22;31769;49.304;8.428;2023-11-19T05:16:52;11.10;99.90
46037;DHT22;31769;49.304;8.428;2023-11-19T05:19:53;11.00;99.90
46037;DHT22;31769;49.304;8.428;2023-11-19T05:22:54;11.10;99.90
46037;DHT22;31769;49.304;8.428;2023-11-19T05:25:54;11.20;99.90
46037;DHT22;31769;49.304;8.428;2023-11-19T05:28:55;11.20;99.90
46037;DHT22;31769;49.304;8.428;2023-11-19T05:31:56;11.10;99.90
46037;DHT22;31769;49.304;8.428;2023-11-19T05:34:56;11.20;99.90
46037;DHT22;31769;49.304;8.428;2023-11-19T05:37:57;11.30;99.90
46037;DHT22;31769;49.304;8.428;2023-11-19T05:40:58;11.20;99.90
46037;DHT22;31769;49.304;8.428;2023-11-19T05:43:59;11.20;99.90
46037;DHT22;31769;49.304;8.428;2023-11-19T05:47:00;11.30;99.90
46037;DHT22;31769;49.304;8.428;2023-11-19T05:50:00;11.30;99.90
46037;DHT22;31769;49.304;8.428;2023-11-19T05:53:01;11.80;99.90
46037;DHT22;31769;49.304;8.428;2023-11-19T05:56:02;11.30;99.90
46037;DHT22;31769;49.304;8.428;2023-11-19T05:59:04;11.40;99.90
46037;DHT22;31769;49.304;8.428;2023-11-19T06:02:07;11.40;99.90
46037;DHT22;31769;49.304;8.428;2023-11-19T06:05:08;11.60;99.90
46037;DHT22;31769;49.304;8.428;2023-11-19T06:08:10;11.40;99.90
46037;DHT22;31769;49.304;8.428;2023-11-19T06:11:11;11.40;99.90
46037;DHT22;31769;49.304;8.428;2023-11-19T06:14:19;11.50;99.90
46037;DHT22;31769;49.304;8.428;2023-11-19T06:17:19;11.50;99.90
46037;DHT22;31769;49.304;8.428;2023-11-19T06:20:20;12.20;99.90
46037;DHT22;31769;49.304;8.428;2023-11-19T06:23:21;11.50;99.90
46037;DHT22;31769;49.304;8.428;2023-11-19T06:26:22;11.60;99.90
46037;DHT22;31769;49.304;8.428;2023-11-19T06:29:23;12.70;99.90
46037;DHT22;31769;49.304;8.428;2023-11-19T06:32:24;11.60;99.90
46037;DHT22;31769;49.304;8.428;2023-11-19T06:35:25;11.60;99.90
46037;DHT22;31769;49.304;8.428;2023-11-19T06:38:25;11.70;99.90
46037;DHT22;31769;49.304;8.428;2023-11-19T06:41:27;11.70;99.90
46037;DHT22;31769;49.304;8.428;2023-11-19T06:44:29;11.70;99.90
46037;DHT22;31769;49.304;8.428;2023-11-19T06:47:30;11.80;99.90
46037;DHT22;31769;49.304;8.428;2023-11-19T06:50:31;11.80;99.90
46037;DHT22;31769;49.304;8.428;2023-11-19T06:53:32;11.80;99.90
46037;DHT22;31769;49.304;8.428;2023-11-19T06:56:33;11.80;99.90
46037;DHT22;31769;49.304;8.428;2023-11-19T06:59:33;11.80;99.90
46037;DHT22;31769;49.304;8.428;2023-11-19T07:02:34;11.80;99.90
46037;DHT22;31769;49.304;8.428;2023-11-19T07:05:36;11.80;99.90
46037;DHT22;31769;49.304;8.428;2023-11-19T07:08:40;11.80;99.90
46037;DHT22;31769;49.304;8.428;2023-11-19T07:11:41;11.80;99.90
46037;DHT22;31769;49.304;8.428;2023-11-19T07:14:42;11.80;99.90
46037;DHT22;31769;49.304;8.428;2023-11-19T07:17:43;11.90;99.90
46037;DHT22;31769;49.304;8.428;2023-11-19T07:20:45;11.90;99.90
46037;DHT22;31769;49.304;8.428;2023-11-19T07:23:47;11.90;99.90
46037;DHT22;31769;49.304;8.428;2023-11-19T07:26:48;11.90;99.90
46037;DHT22;31769;49.304;8.428;2023-11-19T07:29:48;11.90;99.90
46037;DHT22;31769;49.304;8.428;2023-11-19T07:32:49;12.00;99.90
46037;DHT22;31769;49.304;8.428;2023-11-19T07:35:50;12.00;99.90
46037;DHT22;31769;49.304;8.428;2023-11-19T07:38:51;11.90;99.90
46037;DHT22;31769;49.304;8.428;2023-11-19T07:41:52;11.90;99.90
46037;DHT22;31769;49.304;8.428;2023-11-19T07:44:53;11.90;99.90
46037;DHT22;31769;49.304;8.428;2023-11-19T07:47:56;11.90;99.90
46037;DHT22;31769;49.304;8.428;2023-11-19T07:50:56;11.90;99.90
46037;DHT22;31769;49.304;8.428;2023-11-19T07:53:57;11.90;99.90
46037;DHT22;31769;49.304;8.428;2023-11-19T07:56:59;12.00;99.90
46037;DHT22;31769;49.304;8.428;2023-11-19T07:59:59;12.00;99.90
46037;DHT22;31769;49.304;8.428;2023-11-19T08:03:02;12.00;99.90
46037;DHT22;31769;49.304;8.428;2023-11-19T08:06:04;12.10;99.90
46037;DHT22;31769;49.304;8.428;2023-11-19T08:09:04;12.10;99.90
46037;DHT22;31769;49.304;8.428;2023-11-19T08:12:06;12.10;99.90
46037;DHT22;31769;49.304;8.428;2023-11-19T08:15:07;12.20;99.90
46037;DHT22;31769;49.304;8.428;2023-11-19T08:18:08;12.30;99.90
46037;DHT22;31769;49.304;8.428;2023-11-19T08:21:09;12.30;99.90
46037;DHT22;31769;49.304;8.428;2023-11-19T08:24:12;12.40;99.90
46037;DHT22;31769;49.304;8.428;2023-11-19T08:27:13;12.40;99.90
46037;DHT22;31769;49.304;8.428;2023-11-19T08:30:14;12.50;99.90
46037;DHT22;31769;49.304;8.428;2023-11-19T08:33:15;12.40;99.90
46037;DHT22;31769;49.304;8.428;2023-11-19T08:36:16;12.60;99.90
46037;DHT22;31769;49.304;8.428;2023-11-19T08:39:19;12.70;99.90
46037;DHT22;31769;49.304;8.428;2023-11-19T08:42:21;12.70;99.90
46037;DHT22;31769;49.304;8.428;2023-11-19T08:45:22;12.90;99.90
46037;DHT22;31769;49.304;8.428;2023-11-19T08:48:23;12.80;99.90
46037;DHT22;31769;49.304;8.428;2023-11-19T08:51:25;12.70;99.90
46037;DHT22;31769;49.304;8.428;2023-11-19T08:54:25;12.70;99.90
46037;DHT22;31769;49.304;8.428;2023-11-19T08:57:26;12.80;99.90
46037;DHT22;31769;49.304;8.428;2023-11-19T09:00:27;12.80;99.90
46037;DHT22;31769;49.304;8.428;2023-11-19T09:03:27;12.90;99.90
46037;DHT22;31769;49.304;8.428;2023-11-19T09:06:31;13.10;99.90
46037;DHT22;31769;49.304;8.428;2023-11-19T09:09:32;13.20;99.90
46037;DHT22;31769;49.304;8.428;2023-11-19T09:12:36;13.30;99.90
46037;DHT22;31769;49.304;8.428;2023-11-19T09:15:36;13.40;99.90
46037;DHT22;31769;49.304;8.428;2023-11-19T09:18:38;13.50;99.90
46037;DHT22;31769;49.304;8.428;2023-11-19T09:21:38;13.60;99.90
46037;DHT22;31769;49.304;8.428;2023-11-19T09:24:39;13.60;99.90
46037;DHT22;31769;49.304;8.428;2023-11-19T09:27:40;13.60;99.90
46037;DHT22;31769;49.304;8.428;2023-11-19T09:30:41;13.70;99.90
46037;DHT22;31769;49.304;8.428;2023-11-19T09:33:41;13.80;99.90
46037;DHT22;31769;49.304;8.428;2023-11-19T09:36:43;13.70;99.90
46037;DHT22;31769;49.304;8.428;2023-11-19T09:39:44;13.70;99.90
46037;DHT22;31769;49.304;8.428;2023-11-19T09:42:45;13.70;99.90
46037;DHT22;31769;49.304;8.428;2023-11-19T09:45:50;13.70;99.90
46037;DHT22;31769;49.304;8.428;2023-11-19T09:48:53;13.70;99.90
46037;DHT22;31769;49.304;8.428;2023-11-19T09:51:57;13.70;99.90
46037;DHT22;31769;49.304;8.428;2023-11-19T09:54:58;13.90;99.90
46037;DHT22;31769;49.304;8.428;2023-11-19T09:58:00;13.90;99.90
46037;DHT22;31769;49.304;8.428;2023-11-19T10:01:02;13.90;99.90
46037;DHT22;31769;49.304;8.428;2023-11-19T10:04:15;14.00;99.90
46037;DHT22;31769;49.304;8.428;2023-11-19T10:07:17;14.10;99.90
46037;DHT22;31769;49.304;8.428;2023-11-19T10:10:21;14.10;99.90
46037;DHT22;31769;49.304;8.428;2023-11-19T10:13:28;14.20;99.90
46037;DHT22;31769;49.304;8.428;2023-11-19T10:16:29;14.30;99.90
46037;DHT22;31769;49.304;8.428;2023-11-19T10:19:31;14.60;99.90
46037;DHT22;31769;49.304;8.428;2023-11-19T10:22:36;14.80;99.90
46037;DHT22;31769;49.304;8.428;2023-11-19T10:25:37;14.80;99.90
46037;DHT22;31769;49.304;8.428;2023-11-19T10:28:41;14.90;99.90
46037;DHT22;31769;49.304;8.428;2023-11-19T10:31:56;15.00;99.90
46037;DHT22;31769;49.304;8.428;2023-11-19T10:35:06;15.20;99.90
46037;DHT22;31769;49.304;8.428;2023-11-19T10:38:14;15.20;99.90
46037;DHT22;31769;49.304;8.428;2023-11-19T10:41:28;15.30;99.90
46037;DHT22;31769;49.304;8.428;2023-11-19T10:44:33;15.50;99.90
46037;DHT22;31769;49.304;8.428;2023-11-19T10:47:37;15.60;99.90
46037;DHT22;31769;49.304;8.428;2023-11-19T10:50:41;15.70;99.90
46037;DHT22;31769;49.304;8.428;2023-11-19T10:53:43;15.60;99.90
46037;DHT22;31769;49.304;8.428;2023-11-19T10:56:48;15.60;99.90
46037;DHT22;31769;49.304;8.428;2023-11-19T10:59:52;15.40;99.90
46037;DHT22;31769;49.304;8.428;2023-11-19T11:03:00;15.30;99.90
46037;DHT22;31769;49.304;8.428;2023-11-19T11:06:03;15.20;99.90
46037;DHT22;31769;49.304;8.428;2023-11-19T11:09:04;15.30;99.90
46037;DHT22;31769;49.304;8.428;2023-11-19T11:12:06;15.20;99.90
46037;DHT22;31769;49.304;8.428;2023-11-19T11:15:08;15.30;99.90
46037;DHT22;31769;49.304;8.428;2023-11-19T11:18:10;15.40;99.90
46037;DHT22;31769;49.304;8.428;2023-11-19T11:21:17;15.70;99.90
46037;DHT22;31769;49.304;8.428;2023-11-19T11:28:16;16.10;99.90
46037;DHT22;31769;49.304;8.428;2023-11-19T11:34:52;17.40;99.90
46037;DHT22;31769;49.304;8.428;2023-11-19T11:38:07;18.30;99.90
46037;DHT22;31769;49.304;8.428;2023-11-19T11:41:19;18.60;99.90
46037;DHT22;31769;49.304;8.428;2023-11-19T11:44:58;19.90;99.90
46037;DHT22;31769;49.304;8.428;2023-11-19T11:48:17;21.10;99.90
46037;DHT22;31769;49.304;8.428;2023-11-19T11:54:47;21.20;99.90
46037;DHT22;31769;49.304;8.428;2023-11-19T11:57:47;22.10;99.90
46037;DHT22;31769;49.304;8.428;2023-11-19T12:00:48;20.50;99.90
46037;DHT22;31769;49.304;8.428;2023-11-19T12:03:51;20.30;99.90
46037;DHT22;31769;49.304;8.428;2023-11-19T12:07:05;20.50;99.90
46037;DHT22;31769;49.304;8.428;2023-11-19T12:10:08;18.60;99.90
46037;DHT22;31769;49.304;8.428;2023-11-19T12:13:09;18.30;99.90
46037;DHT22;31769;49.304;8.428;2023-11-19T12:16:10;20.50;99.90
46037;DHT22;31769;49.304;8.428;2023-11-19T12:19:12;21.50;99.90
46037;DHT22;31769;49.304;8.428;2023-11-19T12:22:13;22.80;99.90
46037;DHT22;31769;49.304;8.428;2023-11-19T12:25:14;22.20;99.90
46037;DHT22;31769;49.304;8.428;2023-11-19T12:28:15;19.90;99.90
46037;DHT22;31769;49.304;8.428;2023-11-19T12:31:19;18.50;99.90
46037;DHT22;31769;49.304;8.428;2023-11-19T12:34:20;17.40;99.90
46037;DHT22;31769;49.304;8.428;2023-11-19T12:37:23;16.90;99.90
46037;DHT22;31769;49.304;8.428;2023-11-19T12:40:25;16.60;99.90
46037;DHT22;31769;49.304;8.428;2023-11-19T12:43:26;16.30;99.90
46037;DHT22;31769;49.304;8.428;2023-11-19T12:46:26;16.20;99.90
46037;DHT22;31769;49.304;8.428;2023-11-19T12:49:27;16.00;99.90
46037;DHT22;31769;49.304;8.428;2023-11-19T12:52:28;15.90;99.90
46037;DHT22;31769;49.304;8.428;2023-11-19T12:55:29;15.90;99.90
46037;DHT22;31769;49.304;8.428;2023-11-19T12:58:36;15.90;99.90
46037;DHT22;31769;49.304;8.428;2023-11-19T13:01:37;15.80;99.90
46037;DHT22;31769;49.304;8.428;2023-11-19T13:04:39;15.90;99.90
46037;DHT22;31769;49.304;8.428;2023-11-19T13:07:39;16.00;99.90
46037;DHT22;31769;49.304;8.428;2023-11-19T13:10:50;16.00;99.90
46037;DHT22;31769;49.304;8.428;2023-11-19T13:14:00;15.90;99.90
46037;DHT22;31769;49.304;8.428;2023-11-19T13:17:00;15.90;99.90
46037;DHT22;31769;49.304;8.428;2023-11-19T13:20:01;15.90;99.90
46037;DHT22;31769;49.304;8.428;2023-11-19T13:23:05;15.90;99.90
46037;DHT22;31769;49.304;8.428;2023-11-19T13:26:07;16.00;99.90
46037;DHT22;31769;49.304;8.428;2023-11-19T13:29:08;16.10;99.90
46037;DHT22;31769;49.304;8.428;2023-11-19T13:32:11;16.30;99.90
46037;DHT22;31769;49.304;8.428;2023-11-19T13:35:12;16.60;99.90
46037;DHT22;31769;49.304;8.428;2023-11-19T13:38:13;19.90;99.90
46037;DHT22;31769;49.304;8.428;2023-11-19T13:41:14;23.80;99.90
46037;DHT22;31769;49.304;8.428;2023-11-19T13:44:14;25.40;97.60
46037;DHT22;31769;49.304;8.428;2023-11-19T13:47:15;25.20;94.10
46037;DHT22;31769;49.304;8.428;2023-11-19T13:50:19;24.70;93.90
46037;DHT22;31769;49.304;8.428;2023-11-19T13:53:20;24.40;94.30
46037;DHT22;31769;49.304;8.428;2023-11-19T13:56:21;23.80;93.20
46037;DHT22;31769;49.304;8.428;2023-11-19T13:59:22;22.30;95.50
46037;DHT22;31769;49.304;8.428;2023-11-19T14:02:22;22.70;95.00
46037;DHT22;31769;49.304;8.428;2023-11-19T14:05:26;22.40;94.70
46037;DHT22;31769;49.304;8.428;2023-11-19T14:08:26;22.40;94.40
46037;DHT22;31769;49.304;8.428;2023-11-19T14:11:27;22.60;94.20
46037;DHT22;31769;49.304;8.428;2023-11-19T14:14:28;23.20;93.10
46037;DHT22;31769;49.304;8.428;2023-11-19T14:17:29;22.20;93.10
46037;DHT22;31769;49.304;8.428;2023-11-19T14:20:30;21.60;94.30
46037;DHT22;31769;49.304;8.428;2023-11-19T14:23:31;20.20;96.20
46037;DHT22;31769;49.304;8.428;2023-11-19T14:26:31;18.90;99.50
46037;DHT22;31769;49.304;8.428;2023-11-19T14:29:32;17.90;99.90
46037;DHT22;31769;49.304;8.428;2023-11-19T14:32:33;17.30;99.90
46037;DHT22;31769;49.304;8.428;2023-11-19T14:35:33;17.60;99.90
46037;DHT22;31769;49.304;8.428;2023-11-19T14:38:34;17.40;99.90
46037;DHT22;31769;49.304;8.428;2023-11-19T14:41:34;17.30;99.90
46037;DHT22;31769;49.304;8.428;2023-11-19T14:44:35;17.00;99.90
46037;DHT22;31769;49.304;8.428;2023-11-19T14:47:36;17.00;99.90
46037;DHT22;31769;49.304;8.428;2023-11-19T14:50:37;17.50;99.90
46037;DHT22;31769;49.304;8.428;2023-11-19T14:53:38;17.60;99.90
46037;DHT22;31769;49.304;8.428;2023-11-19T14:56:38;17.70;99.90
46037;DHT22;31769;49.304;8.428;2023-11-19T14:59:39;17.60;99.90
46037;DHT22;31769;49.304;8.428;2023-11-19T15:02:43;17.20;99.90
46037;DHT22;31769;49.304;8.428;2023-11-19T15:05:45;17.00;99.90
46037;DHT22;31769;49.304;8.428;2023-11-19T15:08:46;17.20;99.90
46037;DHT22;31769;49.304;8.428;2023-11-19T15:11:47;16.80;99.90
46037;DHT22;31769;49.304;8.428;2023-11-19T15:14:48;16.60;99.90
46037;DHT22;31769;49.304;8.428;2023-11-19T15:17:48;16.70;99.90
46037;DHT22;31769;49.304;8.428;2023-11-19T15:20:49;16.80;99.90
46037;DHT22;31769;49.304;8.428;2023-11-19T15:23:49;16.50;99.90
46037;DHT22;31769;49.304;8.428;2023-11-19T15:26:50;16.00;99.90
46037;DHT22;31769;49.304;8.428;2023-11-19T15:29:51;15.80;99.90
46037;DHT22;31769;49.304;8.428;2023-11-19T15:32:53;15.50;99.90
46037;DHT22;31769;49.304;8.428;2023-11-19T15:35:53;15.40;99.90
46037;DHT22;31769;49.304;8.428;2023-11-19T15:38:54;15.30;99.90
46037;DHT22;31769;49.304;8.428;2023-11-19T15:41:55;15.10;99.90
46037;DHT22;31769;49.304;8.428;2023-11-19T15:44:57;15.00;99.90
46037;DHT22;31769;49.304;8.428;2023-11-19T15:47:57;14.90;99.90
46037;DHT22;31769;49.304;8.428;2023-11-19T15:50:58;14.80;99.90
46037;DHT22;31769;49.304;8.428;2023-11-19T15:53:59;14.80;99.90
46037;DHT22;31769;49.304;8.428;2023-11-19T15:57:00;14.80;99.90
46037;DHT22;31769;49.304;8.428;2023-11-19T16:00:01;14.70;99.90
46037;DHT22;31769;49.304;8.428;2023-11-19T16:03:05;14.70;99.90
46037;DHT22;31769;49.304;8.428;2023-11-19T16:06:06;14.60;99.90
46037;DHT22;31769;49.304;8.428;2023-11-19T16:09:07;14.50;99.90
46037;DHT22;31769;49.304;8.428;2023-11-19T16:12:09;14.50;99.90
46037;DHT22;31769;49.304;8.428;2023-11-19T16:15:11;14.40;99.90
46037;DHT22;31769;49.304;8.428;2023-11-19T16:18:11;14.40;99.90
46037;DHT22;31769;49.304;8.428;2023-11-19T16:21:14;14.40;99.90
46037;DHT22;31769;49.304;8.428;2023-11-19T16:24:14;14.30;99.90
46037;DHT22;31769;49.304;8.428;2023-11-19T16:27:15;14.20;99.90
46037;DHT22;31769;49.304;8.428;2023-11-19T16:30:16;14.20;99.90
46037;DHT22;31769;49.304;8.428;2023-11-19T16:33:17;14.10;99.90
46037;DHT22;31769;49.304;8.428;2023-11-19T16:36:18;14.10;99.90
46037;DHT22;31769;49.304;8.428;2023-11-19T16:39:19;14.10;99.90
46037;DHT22;31769;49.304;8.428;2023-11-19T16:42:19;14.00;99.90
46037;DHT22;31769;49.304;8.428;2023-11-19T16:45:21;14.10;99.90
46037;DHT22;31769;49.304;8.428;2023-11-19T16:48:22;14.00;99.90
46037;DHT22;31769;49.304;8.428;2023-11-19T16:51:23;13.90;99.90
46037;DHT22;31769;49.304;8.428;2023-11-19T16:54:24;13.90;99.90
46037;DHT22;31769;49.304;8.428;2023-11-19T16:57:25;13.90;99.90
46037;DHT22;31769;49.304;8.428;2023-11-19T17:00:27;13.90;99.90
46037;DHT22;31769;49.304;8.428;2023-11-19T17:03:28;14.00;99.90
46037;DHT22;31769;49.304;8.428;2023-11-19T17:06:29;13.90;99.90
46037;DHT22;31769;49.304;8.428;2023-11-19T17:09:30;13.90;99.90
46037;DHT22;31769;49.304;8.428;2023-11-19T17:12:30;14.00;99.90
46037;DHT22;31769;49.304;8.428;2023-11-19T17:15:31;13.90;99.90
46037;DHT22;31769;49.304;8.428;2023-11-19T17:18:32;13.90;99.90
46037;DHT22;31769;49.304;8.428;2023-11-19T17:21:32;13.90;99.90
46037;DHT22;31769;49.304;8.428;2023-11-19T17:24:33;14.00;99.90
46037;DHT22;31769;49.304;8.428;2023-11-19T17:27:34;14.00;99.90
46037;DHT22;31769;49.304;8.428;2023-11-19T17:30:35;13.90;99.90
46037;DHT22;31769;49.304;8.428;2023-11-19T17:33:35;13.90;99.90
46037;DHT22;31769;49.304;8.428;2023-11-19T17:36:36;13.80;99.90
46037;DHT22;31769;49.304;8.428;2023-11-19T17:39:37;13.70;99.90
46037;DHT22;31769;49.304;8.428;2023-11-19T17:42:38;13.70;99.90
46037;DHT22;31769;49.304;8.428;2023-11-19T17:45:39;13.60;99.90
46037;DHT22;31769;49.304;8.428;2023-11-19T17:48:40;13.60;99.90
46037;DHT22;31769;49.304;8.428;2023-11-19T17:51:41;13.60;99.90
46037;DHT22;31769;49.304;8.428;2023-11-19T17:54:41;13.50;99.90
46037;DHT22;31769;49.304;8.428;2023-11-19T17:57:42;13.50;99.90
46037;DHT22;31769;49.304;8.428;2023-11-19T18:00:44;13.40;99.90
46037;DHT22;31769;49.304;8.428;2023-11-19T18:03:45;13.30;99.90
46037;DHT22;31769;49.304;8.428;2023-11-19T18:06:46;13.40;99.90
46037;DHT22;31769;49.304;8.428;2023-11-19T18:09:46;13.30;99.90
46037;DHT22;31769;49.304;8.428;2023-11-19T18:12:47;13.30;99.90
46037;DHT22;31769;49.304;8.428;2023-11-19T18:15:48;13.20;99.90
46037;DHT22;31769;49.304;8.428;2023-11-19T18:18:48;13.10;99.90
46037;DHT22;31769;49.304;8.428;2023-11-19T18:21:49;13.10;99.90
46037;DHT22;31769;49.304;8.428;2023-11-19T18:24:50;13.00;99.90
46037;DHT22;31769;49.304;8.428;2023-11-19T18:27:51;13.00;99.90
46037;DHT22;31769;49.304;8.428;2023-11-19T18:30:51;13.10;99.90
46037;DHT22;31769;49.304;8.428;2023-11-19T18:33:52;13.10;99.90
46037;DHT22;31769;49.304;8.428;2023-11-19T18:36:53;13.20;99.90
46037;DHT22;31769;49.304;8.428;2023-11-19T18:39:53;13.20;99.90
46037;DHT22;31769;49.304;8.428;2023-11-19T18:42:54;13.20;99.90
46037;DHT22;31769;49.304;8.428;2023-11-19T18:45:55;13.20;99.90
46037;DHT22;31769;49.304;8.428;2023-11-19T18:48:56;13.10;99.90
46037;DHT22;31769;49.304;8.428;2023-11-19T18:51:58;13.00;99.90
46037;DHT22;31769;49.304;8.428;2023-11-19T18:55:02;13.10;99.90
46037;DHT22;31769;49.304;8.428;2023-11-19T18:58:05;13.10;99.90
46037;DHT22;31769;49.304;8.428;2023-11-19T19:01:07;13.10;99.90
46037;DHT22;31769;49.304;8.428;2023-11-19T19:04:09;13.00;99.90
46037;DHT22;31769;49.304;8.428;2023-11-19T19:07:10;13.10;99.90
46037;DHT22;31769;49.304;8.428;2023-11-19T19:10:11;13.60;99.90
46037;DHT22;31769;49.304;8.428;2023-11-19T19:13:14;13.70;99.90
46037;DHT22;31769;49.304;8.428;2023-11-19T19:16:15;13.20;99.90
46037;DHT22;31769;49.304;8.428;2023-11-19T19:19:15;13.70;99.90
46037;DHT22;31769;49.304;8.428;2023-11-19T19:22:16;13.10;99.90